sensor_id;sensor_type;location;lat;lon;timestamp;P1;durP1;ratioP1;P2;durP2;ratioP2
55879;SDS011;41802;51.564;-1.838;2023-02-15T00:01:04;26.65;;;9.88;;
55879;SDS011;41802;51.564;-1.838;2023-02-15T00:03:33;24.80;;;11.13;;
55879;SDS011;41802;51.564;-1.838;2023-02-15T00:06:01;23.17;;;10.15;;
55879;SDS011;41802;51.564;-1.838;2023-02-15T00:08:28;24.95;;;10.38;;
55879;SDS011;41802;51.564;-1.838;2023-02-15T00:11:03;24.07;;;10.50;;
55879;SDS011;41802;51.564;-1.838;2023-02-15T00:13:31;28.13;;;11.02;;
55879;SDS011;41802;51.564;-1.838;2023-02-15T00:16:02;23.05;;;10.13;;
55879;SDS011;41802;51.564;-1.838;2023-02-15T00:18:29;25.30;;;10.13;;
55879;SDS011;41802;51.564;-1.838;2023-02-15T00:21:02;23.33;;;10.13;;
55879;SDS011;41802;51.564;-1.838;2023-02-15T00:23:30;32.20;;;12.53;;
55879;SDS011;41802;51.564;-1.838;2023-02-15T00:26:04;32.25;;;13.63;;
55879;SDS011;41802;51.564;-1.838;2023-02-15T00:28:32;36.38;;;15.18;;
55879;SDS011;41802;51.564;-1.838;2023-02-15T00:31:04;39.13;;;15.82;;
55879;SDS011;41802;51.564;-1.838;2023-02-15T00:33:32;37.90;;;15.35;;
55879;SDS011;41802;51.564;-1.838;2023-02-15T00:36:01;36.63;;;15.23;;
55879;SDS011;41802;51.564;-1.838;2023-02-15T00:38:29;37.97;;;15.23;;
55879;SDS011;41802;51.564;-1.838;2023-02-15T00:40:58;35.53;;;14.32;;
55879;SDS011;41802;51.564;-1.838;2023-02-15T00:43:26;36.30;;;14.57;;
55879;SDS011;41802;51.564;-1.838;2023-02-15T00:45:54;37.15;;;15.70;;
55879;SDS011;41802;51.564;-1.838;2023-02-15T00:48:21;31.50;;;15.03;;
55879;SDS011;41802;51.564;-1.838;2023-02-15T00:50:51;41.25;;;16.60;;
55879;SDS011;41802;51.564;-1.838;2023-02-15T00:53:23;39.58;;;16.13;;
55879;SDS011;41802;51.564;-1.838;2023-02-15T00:55:51;36.38;;;14.68;;
55879;SDS011;41802;51.564;-1.838;2023-02-15T00:58:19;30.60;;;13.52;;
55879;SDS011;41802;51.564;-1.838;2023-02-15T01:00:47;31.83;;;12.70;;
55879;SDS011;41802;51.564;-1.838;2023-02-15T01:03:15;32.47;;;13.13;;
55879;SDS011;41802;51.564;-1.838;2023-02-15T01:05:43;34.45;;;13.00;;
55879;SDS011;41802;51.564;-1.838;2023-02-15T01:08:11;28.00;;;10.95;;
55879;SDS011;41802;51.564;-1.838;2023-02-15T01:10:40;28.08;;;11.95;;
55879;SDS011;41802;51.564;-1.838;2023-02-15T01:13:10;25.93;;;11.83;;
55879;SDS011;41802;51.564;-1.838;2023-02-15T01:15:37;26.55;;;11.52;;
55879;SDS011;41802;51.564;-1.838;2023-02-15T01:18:09;35.35;;;12.32;;
55879;SDS011;41802;51.564;-1.838;2023-02-15T01:20:40;29.50;;;12.18;;
55879;SDS011;41802;51.564;-1.838;2023-02-15T01:23:10;29.13;;;12.45;;
55879;SDS011;41802;51.564;-1.838;2023-02-15T01:25:38;29.27;;;12.83;;
55879;SDS011;41802;51.564;-1.838;2023-02-15T01:28:09;29.90;;;12.95;;
55879;SDS011;41802;51.564;-1.838;2023-02-15T01:30:37;28.63;;;11.02;;
55879;SDS011;41802;51.564;-1.838;2023-02-15T01:33:05;31.48;;;12.30;;
55879;SDS011;41802;51.564;-1.838;2023-02-15T01:35:33;32.05;;;12.73;;
55879;SDS011;41802;51.564;-1.838;2023-02-15T01:38:01;33.37;;;13.63;;
55879;SDS011;41802;51.564;-1.838;2023-02-15T01:40:30;30.13;;;13.57;;
55879;SDS011;41802;51.564;-1.838;2023-02-15T01:42:57;32.10;;;13.40;;
55879;SDS011;41802;51.564;-1.838;2023-02-15T01:45:28;34.03;;;13.65;;
55879;SDS011;41802;51.564;-1.838;2023-02-15T01:47:56;31.58;;;13.60;;
55879;SDS011;41802;51.564;-1.838;2023-02-15T01:50:30;31.00;;;13.20;;
55879;SDS011;41802;51.564;-1.838;2023-02-15T01:53:01;30.52;;;13.57;;
55879;SDS011;41802;51.564;-1.838;2023-02-15T01:55:32;30.08;;;12.65;;
55879;SDS011;41802;51.564;-1.838;2023-02-15T01:58:00;29.75;;;12.82;;
55879;SDS011;41802;51.564;-1.838;2023-02-15T02:00:29;30.65;;;12.63;;
55879;SDS011;41802;51.564;-1.838;2023-02-15T02:02:57;35.63;;;13.30;;
55879;SDS011;41802;51.564;-1.838;2023-02-15T02:05:25;34.47;;;13.32;;
55879;SDS011;41802;51.564;-1.838;2023-02-15T02:07:54;28.67;;;13.02;;
55879;SDS011;41802;51.564;-1.838;2023-02-15T02:10:23;31.88;;;13.52;;
55879;SDS011;41802;51.564;-1.838;2023-02-15T02:12:52;32.53;;;13.75;;
55879;SDS011;41802;51.564;-1.838;2023-02-15T02:15:20;31.93;;;13.63;;
55879;SDS011;41802;51.564;-1.838;2023-02-15T02:17:55;32.22;;;14.07;;
55879;SDS011;41802;51.564;-1.838;2023-02-15T02:20:28;36.17;;;14.45;;
55879;SDS011;41802;51.564;-1.838;2023-02-15T02:23:20;31.67;;;13.80;;
55879;SDS011;41802;51.564;-1.838;2023-02-15T02:28:46;39.73;;;14.90;;
55879;SDS011;41802;51.564;-1.838;2023-02-15T02:31:24;33.70;;;14.02;;
55879;SDS011;41802;51.564;-1.838;2023-02-15T02:34:02;30.52;;;11.93;;
55879;SDS011;41802;51.564;-1.838;2023-02-15T02:36:34;29.77;;;12.45;;
55879;SDS011;41802;51.564;-1.838;2023-02-15T02:39:07;28.65;;;11.10;;
55879;SDS011;41802;51.564;-1.838;2023-02-15T02:41:38;30.00;;;12.03;;
55879;SDS011;41802;51.564;-1.838;2023-02-15T02:44:10;28.65;;;12.57;;
55879;SDS011;41802;51.564;-1.838;2023-02-15T02:46:44;30.02;;;13.45;;
55879;SDS011;41802;51.564;-1.838;2023-02-15T02:49:16;30.25;;;12.82;;
55879;SDS011;41802;51.564;-1.838;2023-02-15T02:51:44;28.75;;;12.52;;
55879;SDS011;41802;51.564;-1.838;2023-02-15T02:54:12;35.90;;;13.67;;
55879;SDS011;41802;51.564;-1.838;2023-02-15T02:56:41;30.25;;;13.73;;
55879;SDS011;41802;51.564;-1.838;2023-02-15T02:59:10;30.58;;;13.15;;
55879;SDS011;41802;51.564;-1.838;2023-02-15T03:01:39;31.38;;;13.85;;
55879;SDS011;41802;51.564;-1.838;2023-02-15T03:04:09;29.50;;;13.60;;
55879;SDS011;41802;51.564;-1.838;2023-02-15T03:06:39;36.20;;;15.13;;
55879;SDS011;41802;51.564;-1.838;2023-02-15T03:09:09;33.67;;;15.48;;
55879;SDS011;41802;51.564;-1.838;2023-02-15T03:11:42;38.65;;;16.30;;
55879;SDS011;41802;51.564;-1.838;2023-02-15T03:14:10;40.88;;;15.95;;
55879;SDS011;41802;51.564;-1.838;2023-02-15T03:16:42;38.17;;;14.52;;
55879;SDS011;41802;51.564;-1.838;2023-02-15T03:19:12;33.83;;;14.87;;
55879;SDS011;41802;51.564;-1.838;2023-02-15T03:21:43;36.80;;;15.32;;
55879;SDS011;41802;51.564;-1.838;2023-02-15T03:24:16;33.22;;;14.73;;
55879;SDS011;41802;51.564;-1.838;2023-02-15T03:26:45;34.03;;;13.63;;
55879;SDS011;41802;51.564;-1.838;2023-02-15T03:29:13;31.83;;;14.23;;
55879;SDS011;41802;51.564;-1.838;2023-02-15T03:31:45;32.90;;;13.53;;
55879;SDS011;41802;51.564;-1.838;2023-02-15T03:34:14;33.30;;;13.57;;
55879;SDS011;41802;51.564;-1.838;2023-02-15T03:36:45;34.97;;;13.45;;
55879;SDS011;41802;51.564;-1.838;2023-02-15T03:39:17;37.58;;;14.35;;
55879;SDS011;41802;51.564;-1.838;2023-02-15T03:41:46;33.80;;;15.07;;
55879;SDS011;41802;51.564;-1.838;2023-02-15T03:44:18;35.60;;;14.87;;
55879;SDS011;41802;51.564;-1.838;2023-02-15T03:46:50;38.63;;;15.00;;
55879;SDS011;41802;51.564;-1.838;2023-02-15T03:49:21;35.58;;;15.85;;
55879;SDS011;41802;51.564;-1.838;2023-02-15T03:51:53;35.75;;;15.55;;
55879;SDS011;41802;51.564;-1.838;2023-02-15T03:54:24;36.33;;;15.43;;
55879;SDS011;41802;51.564;-1.838;2023-02-15T03:57:13;35.27;;;15.47;;
55879;SDS011;41802;51.564;-1.838;2023-02-15T04:00:00;33.78;;;14.80;;
55879;SDS011;41802;51.564;-1.838;2023-02-15T04:02:49;40.47;;;14.73;;
55879;SDS011;41802;51.564;-1.838;2023-02-15T04:05:19;39.00;;;15.45;;
55879;SDS011;41802;51.564;-1.838;2023-02-15T04:07:50;36.88;;;15.27;;
55879;SDS011;41802;51.564;-1.838;2023-02-15T04:10:20;38.73;;;15.17;;
55879;SDS011;41802;51.564;-1.838;2023-02-15T04:13:05;37.42;;;14.95;;
55879;SDS011;41802;51.564;-1.838;2023-02-15T04:15:33;32.42;;;14.32;;
55879;SDS011;41802;51.564;-1.838;2023-02-15T04:18:19;36.33;;;15.55;;
55879;SDS011;41802;51.564;-1.838;2023-02-15T04:20:46;32.70;;;14.80;;
55879;SDS011;41802;51.564;-1.838;2023-02-15T04:23:34;32.23;;;13.67;;
55879;SDS011;41802;51.564;-1.838;2023-02-15T04:26:19;33.83;;;13.50;;
55879;SDS011;41802;51.564;-1.838;2023-02-15T04:28:47;30.35;;;12.77;;
55879;SDS011;41802;51.564;-1.838;2023-02-15T04:31:14;36.00;;;14.00;;
55879;SDS011;41802;51.564;-1.838;2023-02-15T04:33:42;34.45;;;13.82;;
55879;SDS011;41802;51.564;-1.838;2023-02-15T04:36:10;33.43;;;13.70;;
55879;SDS011;41802;51.564;-1.838;2023-02-15T04:38:39;33.58;;;15.23;;
55879;SDS011;41802;51.564;-1.838;2023-02-15T04:41:06;34.92;;;14.02;;
55879;SDS011;41802;51.564;-1.838;2023-02-15T04:43:35;31.40;;;13.75;;
55879;SDS011;41802;51.564;-1.838;2023-02-15T04:46:04;27.92;;;13.05;;
55879;SDS011;41802;51.564;-1.838;2023-02-15T04:48:32;34.00;;;13.23;;
55879;SDS011;41802;51.564;-1.838;2023-02-15T04:51:04;32.17;;;12.95;;
55879;SDS011;41802;51.564;-1.838;2023-02-15T04:53:32;30.55;;;12.35;;
55879;SDS011;41802;51.564;-1.838;2023-02-15T04:56:01;32.45;;;13.15;;
55879;SDS011;41802;51.564;-1.838;2023-02-15T04:58:29;31.95;;;13.23;;
55879;SDS011;41802;51.564;-1.838;2023-02-15T05:00:56;36.80;;;12.53;;
55879;SDS011;41802;51.564;-1.838;2023-02-15T05:03:24;33.15;;;13.60;;
55879;SDS011;41802;51.564;-1.838;2023-02-15T05:05:52;33.60;;;13.52;;
55879;SDS011;41802;51.564;-1.838;2023-02-15T05:08:20;32.58;;;13.80;;
55879;SDS011;41802;51.564;-1.838;2023-02-15T05:10:48;36.75;;;14.23;;
55879;SDS011;41802;51.564;-1.838;2023-02-15T05:13:17;37.57;;;14.87;;
55879;SDS011;41802;51.564;-1.838;2023-02-15T05:15:48;37.75;;;15.27;;
55879;SDS011;41802;51.564;-1.838;2023-02-15T05:18:23;34.70;;;15.40;;
55879;SDS011;41802;51.564;-1.838;2023-02-15T05:20:51;40.63;;;16.13;;
55879;SDS011;41802;51.564;-1.838;2023-02-15T05:23:18;35.83;;;16.40;;
55879;SDS011;41802;51.564;-1.838;2023-02-15T05:25:50;42.07;;;15.77;;
55879;SDS011;41802;51.564;-1.838;2023-02-15T05:28:37;43.15;;;16.42;;
55879;SDS011;41802;51.564;-1.838;2023-02-15T05:31:05;38.92;;;15.25;;
55879;SDS011;41802;51.564;-1.838;2023-02-15T05:33:33;36.08;;;15.48;;
55879;SDS011;41802;51.564;-1.838;2023-02-15T05:36:01;39.85;;;14.10;;
55879;SDS011;41802;51.564;-1.838;2023-02-15T05:38:30;37.53;;;15.07;;
55879;SDS011;41802;51.564;-1.838;2023-02-15T05:40:57;36.03;;;15.73;;
55879;SDS011;41802;51.564;-1.838;2023-02-15T05:43:25;39.30;;;15.52;;
55879;SDS011;41802;51.564;-1.838;2023-02-15T05:45:55;44.40;;;17.08;;
55879;SDS011;41802;51.564;-1.838;2023-02-15T05:48:23;43.17;;;17.70;;
55879;SDS011;41802;51.564;-1.838;2023-02-15T05:50:57;40.27;;;16.53;;
55879;SDS011;41802;51.564;-1.838;2023-02-15T05:53:26;41.20;;;16.90;;
55879;SDS011;41802;51.564;-1.838;2023-02-15T05:55:53;34.47;;;14.88;;
55879;SDS011;41802;51.564;-1.838;2023-02-15T05:58:26;37.80;;;15.85;;
55879;SDS011;41802;51.564;-1.838;2023-02-15T06:00:56;34.40;;;14.20;;
55879;SDS011;41802;51.564;-1.838;2023-02-15T06:03:23;44.43;;;15.87;;
55879;SDS011;41802;51.564;-1.838;2023-02-15T06:05:54;43.03;;;16.95;;
55879;SDS011;41802;51.564;-1.838;2023-02-15T06:08:22;44.35;;;16.83;;
55879;SDS011;41802;51.564;-1.838;2023-02-15T06:10:49;43.17;;;17.13;;
55879;SDS011;41802;51.564;-1.838;2023-02-15T06:13:18;48.75;;;17.63;;
55879;SDS011;41802;51.564;-1.838;2023-02-15T06:15:45;44.33;;;17.57;;
55879;SDS011;41802;51.564;-1.838;2023-02-15T06:18:14;52.40;;;19.17;;
55879;SDS011;41802;51.564;-1.838;2023-02-15T06:20:44;45.80;;;17.50;;
55879;SDS011;41802;51.564;-1.838;2023-02-15T06:23:13;45.58;;;16.65;;
55879;SDS011;41802;51.564;-1.838;2023-02-15T06:25:40;39.45;;;16.40;;
55879;SDS011;41802;51.564;-1.838;2023-02-15T06:28:08;40.80;;;17.10;;
55879;SDS011;41802;51.564;-1.838;2023-02-15T06:30:36;42.47;;;17.38;;
55879;SDS011;41802;51.564;-1.838;2023-02-15T06:33:04;47.47;;;18.30;;
55879;SDS011;41802;51.564;-1.838;2023-02-15T06:35:33;56.78;;;21.50;;
55879;SDS011;41802;51.564;-1.838;2023-02-15T06:38:01;63.65;;;24.10;;
55879;SDS011;41802;51.564;-1.838;2023-02-15T06:40:30;62.90;;;25.60;;
55879;SDS011;41802;51.564;-1.838;2023-02-15T06:42:57;64.72;;;24.88;;
55879;SDS011;41802;51.564;-1.838;2023-02-15T06:45:25;71.30;;;25.95;;
55879;SDS011;41802;51.564;-1.838;2023-02-15T06:47:53;67.90;;;26.95;;
55879;SDS011;41802;51.564;-1.838;2023-02-15T06:50:21;73.38;;;27.55;;
55879;SDS011;41802;51.564;-1.838;2023-02-15T06:52:52;72.83;;;28.43;;
55879;SDS011;41802;51.564;-1.838;2023-02-15T06:55:22;78.43;;;29.00;;
55879;SDS011;41802;51.564;-1.838;2023-02-15T06:57:50;67.75;;;26.55;;
55879;SDS011;41802;51.564;-1.838;2023-02-15T07:00:18;66.15;;;25.27;;
55879;SDS011;41802;51.564;-1.838;2023-02-15T07:02:46;64.03;;;26.42;;
55879;SDS011;41802;51.564;-1.838;2023-02-15T07:05:14;77.13;;;29.23;;
55879;SDS011;41802;51.564;-1.838;2023-02-15T07:07:41;68.40;;;28.40;;
55879;SDS011;41802;51.564;-1.838;2023-02-15T07:10:11;73.05;;;30.52;;
55879;SDS011;41802;51.564;-1.838;2023-02-15T07:12:39;71.82;;;29.10;;
55879;SDS011;41802;51.564;-1.838;2023-02-15T07:15:11;72.32;;;28.45;;
55879;SDS011;41802;51.564;-1.838;2023-02-15T07:17:39;75.53;;;27.20;;
55879;SDS011;41802;51.564;-1.838;2023-02-15T07:20:09;76.07;;;27.63;;
55879;SDS011;41802;51.564;-1.838;2023-02-15T07:22:37;66.90;;;26.67;;
55879;SDS011;41802;51.564;-1.838;2023-02-15T07:25:05;68.20;;;28.70;;
55879;SDS011;41802;51.564;-1.838;2023-02-15T07:27:35;70.07;;;28.17;;
55879;SDS011;41802;51.564;-1.838;2023-02-15T07:30:04;70.40;;;25.10;;
55879;SDS011;41802;51.564;-1.838;2023-02-15T07:32:32;63.78;;;26.35;;
55879;SDS011;41802;51.564;-1.838;2023-02-15T07:35:00;71.00;;;28.33;;
55879;SDS011;41802;51.564;-1.838;2023-02-15T07:37:28;71.60;;;26.73;;
55879;SDS011;41802;51.564;-1.838;2023-02-15T07:39:56;76.57;;;27.83;;
55879;SDS011;41802;51.564;-1.838;2023-02-15T07:42:24;73.03;;;26.20;;
55879;SDS011;41802;51.564;-1.838;2023-02-15T07:44:53;66.93;;;25.48;;
55879;SDS011;41802;51.564;-1.838;2023-02-15T07:47:20;65.30;;;23.60;;
55879;SDS011;41802;51.564;-1.838;2023-02-15T07:49:49;68.38;;;24.98;;
55879;SDS011;41802;51.564;-1.838;2023-02-15T07:52:16;60.58;;;25.42;;
55879;SDS011;41802;51.564;-1.838;2023-02-15T07:54:44;60.77;;;26.50;;
55879;SDS011;41802;51.564;-1.838;2023-02-15T07:57:13;66.53;;;26.63;;
55879;SDS011;41802;51.564;-1.838;2023-02-15T07:59:41;56.28;;;23.33;;
55879;SDS011;41802;51.564;-1.838;2023-02-15T08:02:10;62.10;;;22.88;;
55879;SDS011;41802;51.564;-1.838;2023-02-15T08:04:38;52.00;;;22.67;;
55879;SDS011;41802;51.564;-1.838;2023-02-15T08:07:07;61.37;;;23.87;;
55879;SDS011;41802;51.564;-1.838;2023-02-15T08:09:35;58.85;;;24.17;;
55879;SDS011;41802;51.564;-1.838;2023-02-15T08:12:03;62.55;;;23.42;;
55879;SDS011;41802;51.564;-1.838;2023-02-15T08:14:31;62.58;;;23.38;;
55879;SDS011;41802;51.564;-1.838;2023-02-15T08:16:59;60.10;;;24.30;;
55879;SDS011;41802;51.564;-1.838;2023-02-15T08:19:30;58.83;;;23.00;;
55879;SDS011;41802;51.564;-1.838;2023-02-15T08:21:59;62.50;;;23.63;;
55879;SDS011;41802;51.564;-1.838;2023-02-15T08:24:27;56.38;;;20.98;;
55879;SDS011;41802;51.564;-1.838;2023-02-15T08:26:55;64.43;;;23.13;;
55879;SDS011;41802;51.564;-1.838;2023-02-15T08:29:24;55.17;;;21.98;;
55879;SDS011;41802;51.564;-1.838;2023-02-15T08:31:52;63.10;;;21.80;;
55879;SDS011;41802;51.564;-1.838;2023-02-15T08:34:20;55.92;;;21.20;;
55879;SDS011;41802;51.564;-1.838;2023-02-15T08:36:49;59.50;;;22.17;;
55879;SDS011;41802;51.564;-1.838;2023-02-15T08:39:17;56.28;;;23.48;;
55879;SDS011;41802;51.564;-1.838;2023-02-15T08:41:45;56.25;;;23.67;;
55879;SDS011;41802;51.564;-1.838;2023-02-15T08:44:14;52.47;;;21.33;;
55879;SDS011;41802;51.564;-1.838;2023-02-15T08:46:42;56.92;;;23.05;;
55879;SDS011;41802;51.564;-1.838;2023-02-15T08:49:11;55.00;;;21.98;;
55879;SDS011;41802;51.564;-1.838;2023-02-15T08:51:40;58.33;;;22.17;;
55879;SDS011;41802;51.564;-1.838;2023-02-15T08:54:12;56.47;;;22.00;;
55879;SDS011;41802;51.564;-1.838;2023-02-15T08:56:41;56.07;;;22.73;;
55879;SDS011;41802;51.564;-1.838;2023-02-15T08:59:12;66.97;;;21.92;;
55879;SDS011;41802;51.564;-1.838;2023-02-15T09:01:40;54.08;;;22.63;;
55879;SDS011;41802;51.564;-1.838;2023-02-15T09:04:09;58.20;;;20.42;;
55879;SDS011;41802;51.564;-1.838;2023-02-15T09:06:39;55.30;;;20.90;;
55879;SDS011;41802;51.564;-1.838;2023-02-15T09:09:07;52.50;;;19.57;;
55879;SDS011;41802;51.564;-1.838;2023-02-15T09:11:40;51.70;;;21.35;;
55879;SDS011;41802;51.564;-1.838;2023-02-15T09:14:08;51.53;;;21.70;;
55879;SDS011;41802;51.564;-1.838;2023-02-15T09:16:37;52.13;;;20.48;;
55879;SDS011;41802;51.564;-1.838;2023-02-15T09:19:05;50.30;;;21.17;;
55879;SDS011;41802;51.564;-1.838;2023-02-15T09:21:33;40.43;;;15.70;;
55879;SDS011;41802;51.564;-1.838;2023-02-15T09:24:04;52.72;;;20.92;;
55879;SDS011;41802;51.564;-1.838;2023-02-15T09:26:32;45.22;;;18.52;;
55879;SDS011;41802;51.564;-1.838;2023-02-15T09:29:03;43.08;;;19.10;;
55879;SDS011;41802;51.564;-1.838;2023-02-15T09:31:31;49.78;;;20.52;;
55879;SDS011;41802;51.564;-1.838;2023-02-15T09:34:00;41.33;;;17.87;;
55879;SDS011;41802;51.564;-1.838;2023-02-15T09:36:30;47.97;;;18.77;;
55879;SDS011;41802;51.564;-1.838;2023-02-15T09:38:59;42.55;;;18.02;;
55879;SDS011;41802;51.564;-1.838;2023-02-15T09:41:36;44.10;;;18.15;;
55879;SDS011;41802;51.564;-1.838;2023-02-15T09:44:14;45.92;;;19.55;;
55879;SDS011;41802;51.564;-1.838;2023-02-15T09:46:49;42.53;;;18.23;;
55879;SDS011;41802;51.564;-1.838;2023-02-15T09:49:21;38.65;;;16.13;;
55879;SDS011;41802;51.564;-1.838;2023-02-15T09:52:14;42.72;;;17.80;;
55879;SDS011;41802;51.564;-1.838;2023-02-15T09:54:48;41.35;;;18.17;;
55879;SDS011;41802;51.564;-1.838;2023-02-15T09:57:22;43.55;;;18.33;;
55879;SDS011;41802;51.564;-1.838;2023-02-15T09:59:57;46.37;;;18.40;;
55879;SDS011;41802;51.564;-1.838;2023-02-15T10:02:30;31.45;;;13.73;;
55879;SDS011;41802;51.564;-1.838;2023-02-15T10:05:06;39.75;;;14.55;;
55879;SDS011;41802;51.564;-1.838;2023-02-15T10:07:42;27.58;;;11.35;;
55879;SDS011;41802;51.564;-1.838;2023-02-15T10:10:14;31.60;;;13.82;;
55879;SDS011;41802;51.564;-1.838;2023-02-15T10:12:57;30.00;;;13.40;;
55879;SDS011;41802;51.564;-1.838;2023-02-15T10:15:41;36.63;;;14.88;;
55879;SDS011;41802;51.564;-1.838;2023-02-15T10:18:25;31.83;;;13.23;;
55879;SDS011;41802;51.564;-1.838;2023-02-15T10:20:56;32.95;;;13.93;;
55879;SDS011;41802;51.564;-1.838;2023-02-15T10:23:30;31.48;;;13.35;;
55879;SDS011;41802;51.564;-1.838;2023-02-15T10:26:04;35.90;;;15.47;;
55879;SDS011;41802;51.564;-1.838;2023-02-15T10:28:39;34.53;;;14.45;;
55879;SDS011;41802;51.564;-1.838;2023-02-15T10:31:12;38.50;;;14.20;;
55879;SDS011;41802;51.564;-1.838;2023-02-15T10:33:42;23.95;;;10.57;;
55879;SDS011;41802;51.564;-1.838;2023-02-15T10:36:16;26.02;;;11.35;;
55879;SDS011;41802;51.564;-1.838;2023-02-15T10:38:46;35.23;;;15.50;;
55879;SDS011;41802;51.564;-1.838;2023-02-15T10:41:24;42.15;;;14.32;;
55879;SDS011;41802;51.564;-1.838;2023-02-15T10:44:00;35.67;;;14.52;;
55879;SDS011;41802;51.564;-1.838;2023-02-15T10:46:39;33.47;;;15.07;;
55879;SDS011;41802;51.564;-1.838;2023-02-15T10:49:13;33.05;;;14.48;;
55879;SDS011;41802;51.564;-1.838;2023-02-15T10:51:46;32.43;;;14.03;;
55879;SDS011;41802;51.564;-1.838;2023-02-15T10:54:20;25.33;;;11.25;;
55879;SDS011;41802;51.564;-1.838;2023-02-15T10:56:53;25.95;;;10.45;;
55879;SDS011;41802;51.564;-1.838;2023-02-15T10:59:38;28.10;;;12.27;;
55879;SDS011;41802;51.564;-1.838;2023-02-15T11:02:14;31.05;;;13.70;;
55879;SDS011;41802;51.564;-1.838;2023-02-15T11:04:51;31.30;;;12.33;;
55879;SDS011;41802;51.564;-1.838;2023-02-15T11:07:21;28.70;;;13.43;;
55879;SDS011;41802;51.564;-1.838;2023-02-15T11:09:51;29.77;;;13.05;;
55879;SDS011;41802;51.564;-1.838;2023-02-15T11:12:22;33.15;;;13.68;;
55879;SDS011;41802;51.564;-1.838;2023-02-15T11:14:51;30.60;;;12.50;;
55879;SDS011;41802;51.564;-1.838;2023-02-15T11:17:22;33.97;;;15.03;;
55879;SDS011;41802;51.564;-1.838;2023-02-15T11:19:58;32.75;;;12.85;;
55879;SDS011;41802;51.564;-1.838;2023-02-15T11:22:29;27.52;;;12.35;;
55879;SDS011;41802;51.564;-1.838;2023-02-15T11:24:59;26.77;;;11.15;;
55879;SDS011;41802;51.564;-1.838;2023-02-15T11:27:28;20.70;;;9.27;;
55879;SDS011;41802;51.564;-1.838;2023-02-15T11:29:57;26.47;;;10.97;;
55879;SDS011;41802;51.564;-1.838;2023-02-15T11:32:30;31.60;;;12.23;;
55879;SDS011;41802;51.564;-1.838;2023-02-15T11:34:59;27.25;;;10.85;;
55879;SDS011;41802;51.564;-1.838;2023-02-15T11:37:30;24.05;;;9.48;;
55879;SDS011;41802;51.564;-1.838;2023-02-15T11:39:59;26.20;;;12.07;;
55879;SDS011;41802;51.564;-1.838;2023-02-15T11:42:28;23.83;;;10.70;;
55879;SDS011;41802;51.564;-1.838;2023-02-15T11:44:58;30.98;;;10.00;;
55879;SDS011;41802;51.564;-1.838;2023-02-15T11:47:28;22.40;;;8.63;;
55879;SDS011;41802;51.564;-1.838;2023-02-15T11:49:56;17.55;;;7.57;;
55879;SDS011;41802;51.564;-1.838;2023-02-15T11:52:24;24.65;;;9.45;;
55879;SDS011;41802;51.564;-1.838;2023-02-15T11:54:52;21.10;;;9.90;;
55879;SDS011;41802;51.564;-1.838;2023-02-15T11:57:23;21.08;;;9.00;;
55879;SDS011;41802;51.564;-1.838;2023-02-15T11:59:52;22.15;;;8.90;;
55879;SDS011;41802;51.564;-1.838;2023-02-15T12:02:22;29.90;;;10.98;;
55879;SDS011;41802;51.564;-1.838;2023-02-15T12:04:55;21.15;;;8.52;;
55879;SDS011;41802;51.564;-1.838;2023-02-15T12:07:24;24.10;;;10.87;;
55879;SDS011;41802;51.564;-1.838;2023-02-15T12:09:58;27.23;;;12.43;;
55879;SDS011;41802;51.564;-1.838;2023-02-15T12:12:28;32.97;;;12.23;;
55879;SDS011;41802;51.564;-1.838;2023-02-15T12:14:57;25.00;;;11.57;;
55879;SDS011;41802;51.564;-1.838;2023-02-15T12:17:26;26.00;;;11.13;;
55879;SDS011;41802;51.564;-1.838;2023-02-15T12:19:56;29.80;;;13.47;;
55879;SDS011;41802;51.564;-1.838;2023-02-15T12:22:25;29.48;;;13.50;;
55879;SDS011;41802;51.564;-1.838;2023-02-15T12:24:55;29.55;;;12.85;;
55879;SDS011;41802;51.564;-1.838;2023-02-15T12:27:24;26.25;;;11.30;;
55879;SDS011;41802;51.564;-1.838;2023-02-15T12:29:55;24.13;;;12.07;;
55879;SDS011;41802;51.564;-1.838;2023-02-15T12:32:26;24.63;;;10.87;;
55879;SDS011;41802;51.564;-1.838;2023-02-15T12:34:59;20.23;;;7.22;;
55879;SDS011;41802;51.564;-1.838;2023-02-15T12:37:28;25.15;;;10.18;;
55879;SDS011;41802;51.564;-1.838;2023-02-15T12:39:58;17.13;;;8.18;;
55879;SDS011;41802;51.564;-1.838;2023-02-15T12:42:27;30.33;;;11.18;;
55879;SDS011;41802;51.564;-1.838;2023-02-15T12:44:57;20.10;;;9.70;;
55879;SDS011;41802;51.564;-1.838;2023-02-15T12:47:25;22.50;;;9.10;;
55879;SDS011;41802;51.564;-1.838;2023-02-15T12:50:10;20.85;;;9.20;;
55879;SDS011;41802;51.564;-1.838;2023-02-15T12:52:44;18.17;;;7.55;;
55879;SDS011;41802;51.564;-1.838;2023-02-15T12:55:18;17.98;;;7.75;;
55879;SDS011;41802;51.564;-1.838;2023-02-15T12:57:47;16.73;;;6.60;;
55879;SDS011;41802;51.564;-1.838;2023-02-15T13:00:26;12.85;;;6.03;;
55879;SDS011;41802;51.564;-1.838;2023-02-15T13:02:55;19.42;;;6.90;;
55879;SDS011;41802;51.564;-1.838;2023-02-15T13:05:26;15.43;;;6.50;;
55879;SDS011;41802;51.564;-1.838;2023-02-15T13:07:56;14.65;;;6.55;;
55879;SDS011;41802;51.564;-1.838;2023-02-15T13:10:25;10.60;;;5.13;;
55879;SDS011;41802;51.564;-1.838;2023-02-15T13:12:54;18.88;;;5.88;;
55879;SDS011;41802;51.564;-1.838;2023-02-15T13:15:28;15.05;;;5.30;;
55879;SDS011;41802;51.564;-1.838;2023-02-15T13:17:58;21.75;;;6.68;;
55879;SDS011;41802;51.564;-1.838;2023-02-15T13:20:28;11.23;;;5.03;;
55879;SDS011;41802;51.564;-1.838;2023-02-15T13:22:57;12.80;;;5.50;;
55879;SDS011;41802;51.564;-1.838;2023-02-15T13:25:27;12.85;;;5.40;;
55879;SDS011;41802;51.564;-1.838;2023-02-15T13:27:57;16.80;;;6.53;;
55879;SDS011;41802;51.564;-1.838;2023-02-15T13:30:26;18.65;;;8.45;;
55879;SDS011;41802;51.564;-1.838;2023-02-15T13:32:56;21.30;;;9.85;;
55879;SDS011;41802;51.564;-1.838;2023-02-15T13:35:25;20.60;;;8.47;;
55879;SDS011;41802;51.564;-1.838;2023-02-15T13:38:00;13.18;;;5.15;;
55879;SDS011;41802;51.564;-1.838;2023-02-15T13:40:31;16.98;;;6.13;;
55879;SDS011;41802;51.564;-1.838;2023-02-15T13:43:02;15.88;;;5.70;;
55879;SDS011;41802;51.564;-1.838;2023-02-15T13:45:35;20.48;;;8.07;;
55879;SDS011;41802;51.564;-1.838;2023-02-15T13:48:08;11.53;;;5.10;;
55879;SDS011;41802;51.564;-1.838;2023-02-15T13:50:47;12.43;;;5.25;;
55879;SDS011;41802;51.564;-1.838;2023-02-15T13:53:37;17.58;;;6.70;;
55879;SDS011;41802;51.564;-1.838;2023-02-15T13:56:11;10.05;;;4.63;;
55879;SDS011;41802;51.564;-1.838;2023-02-15T13:58:50;14.73;;;5.90;;
55879;SDS011;41802;51.564;-1.838;2023-02-15T14:01:23;13.27;;;4.40;;
55879;SDS011;41802;51.564;-1.838;2023-02-15T14:03:59;15.75;;;6.18;;
55879;SDS011;41802;51.564;-1.838;2023-02-15T14:06:32;14.63;;;4.75;;
55879;SDS011;41802;51.564;-1.838;2023-02-15T14:09:09;14.75;;;6.68;;
55879;SDS011;41802;51.564;-1.838;2023-02-15T14:11:41;15.93;;;6.20;;
55879;SDS011;41802;51.564;-1.838;2023-02-15T14:14:19;15.50;;;5.30;;
55879;SDS011;41802;51.564;-1.838;2023-02-15T14:16:53;17.83;;;5.13;;
55879;SDS011;41802;51.564;-1.838;2023-02-15T14:19:35;13.75;;;3.92;;
55879;SDS011;41802;51.564;-1.838;2023-02-15T14:22:05;13.55;;;5.38;;
55879;SDS011;41802;51.564;-1.838;2023-02-15T14:24:40;15.90;;;4.80;;
55879;SDS011;41802;51.564;-1.838;2023-02-15T14:27:15;12.70;;;5.53;;
55879;SDS011;41802;51.564;-1.838;2023-02-15T14:29:46;15.00;;;6.18;;
55879;SDS011;41802;51.564;-1.838;2023-02-15T14:32:16;23.45;;;6.78;;
55879;SDS011;41802;51.564;-1.838;2023-02-15T14:34:48;14.20;;;4.47;;